Time;durP1;ratioP1;P1;durP2;ratioP2;P2;SDS_P1;SDS_P2;PMS_P1;PMS_P2;Temp;Humidity;BMP_temperature;BMP_pressure;BME280_temperature;BME280_humidity;BME280_pressure;Samples;Min_cycle;Max_cycle;Signal;HPM_P1;HPM_P2
2023/05/31 00:01:30;;;;;;;1.42;0.60;;;19.00;1.00;;;;;;4993864;28;20081;-52
2023/05/31 00:03:57;;;;;;;1.17;0.60;;;19.00;1.00;;;;;;4993940;28;20053;-52
2023/05/31 00:06:24;;;;;;;2.63;0.70;;;19.00;1.00;;;;;;4993546;28;20038;-50
2023/05/31 00:08:51;;;;;;;1.83;0.80;;;19.00;1.00;;;;;;4993828;28;20060;-50
2023/05/31 00:11:18;;;;;;;1.40;0.52;;;19.00;1.00;;;;;;4992453;28;20035;-52
2023/05/31 00:13:44;;;;;;;2.88;0.85;;;19.00;1.00;;;;;;4993827;28;20088;-51
2023/05/31 00:16:13;;;;;;;1.52;0.63;;;19.00;1.00;;;;;;4993430;28;20048;-51
2023/05/31 00:19:00;;;;;;;1.40;0.70;;;19.00;1.00;;;;;;4993495;28;20049;-50
2023/05/31 00:21:26;;;;;;;1.48;0.80;;;19.00;1.00;;;;;;4993632;28;20050;-51
2023/05/31 00:23:53;;;;;;;1.48;0.77;;;18.90;1.00;;;;;;4993367;28;20038;-51
2023/05/31 00:26:21;;;;;;;1.77;1.00;;;18.90;1.00;;;;;;4990694;28;20045;-53
2023/05/31 00:28:50;;;;;;;3.53;0.70;;;18.90;1.00;;;;;;4993557;28;20486;-51
2023/05/31 00:31:17;;;;;;;2.17;0.98;;;18.90;1.00;;;;;;4993339;28;20449;-50
2023/05/31 00:33:46;;;;;;;3.28;0.90;;;18.90;1.00;;;;;;4975670;28;20038;-52
2023/05/31 00:36:12;;;;;;;2.78;0.70;;;18.90;1.00;;;;;;4993228;28;20042;-51
2023/05/31 00:38:39;;;;;;;3.10;0.68;;;18.90;1.00;;;;;;4992984;28;20080;-56
2023/05/31 00:41:09;;;;;;;2.20;0.60;;;18.90;1.00;;;;;;4992984;28;20418;-57
2023/05/31 00:43:36;;;;;;;2.40;0.88;;;18.90;1.00;;;;;;4992839;28;20490;-55
2023/05/31 00:46:04;;;;;;;1.23;0.80;;;18.90;1.00;;;;;;4975523;28;20077;-55
2023/05/31 00:48:31;;;;;;;1.38;0.75;;;18.90;1.00;;;;;;4975106;28;20046;-56
2023/05/31 00:50:57;;;;;;;2.03;0.80;;;18.90;1.00;;;;;;4975446;28;20038;-54
2023/05/31 00:53:24;;;;;;;2.78;0.90;;;18.90;1.00;;;;;;4992791;28;20441;-53
2023/05/31 00:55:52;;;;;;;1.50;0.70;;;18.90;1.00;;;;;;5003472;22;20072;-57
2023/05/31 00:58:20;;;;;;;1.70;1.00;;;18.90;1.00;;;;;;5029225;28;20416;-54
2023/05/31 01:00:47;;;;;;;2.50;0.90;;;18.90;1.00;;;;;;5032135;28;20107;-56
2023/05/31 01:03:15;;;;;;;2.85;1.25;;;18.90;1.00;;;;;;5014221;28;20048;-56
2023/05/31 01:05:44;;;;;;;1.50;0.60;;;18.90;1.00;;;;;;4996509;28;20049;-56
2023/05/31 01:08:11;;;;;;;0.98;0.57;;;18.90;1.00;;;;;;4994395;28;20128;-57
2023/05/31 01:10:38;;;;;;;1.90;0.73;;;18.90;1.00;;;;;;4986739;28;20041;-57
2023/05/31 01:13:27;;;;;;;4.22;0.98;;;18.90;1.00;;;;;;5012479;28;20382;-56
2023/05/31 01:16:02;;;;;;;1.23;0.73;;;18.90;1.00;;;;;;4988930;28;20400;-56
2023/05/31 01:18:38;;;;;;;2.15;0.98;;;18.90;1.00;;;;;;4994473;28;20103;-56
2023/05/31 01:21:06;;;;;;;2.92;1.30;;;18.90;1.00;;;;;;4994729;28;20070;-56
2023/05/31 01:24:01;;;;;;;1.88;0.70;;;18.90;1.00;;;;;;5011852;28;20112;-56
2023/05/31 01:26:42;;;;;;;1.50;0.70;;;18.80;1.00;;;;;;4994326;28;20046;-55
2023/05/31 01:29:16;;;;;;;0.80;0.50;;;18.80;1.00;;;;;;5010189;28;20092;-53
2023/05/31 01:31:45;;;;;;;1.27;0.70;;;18.80;1.00;;;;;;4989304;28;20501;-56
2023/05/31 01:34:13;;;;;;;1.60;0.77;;;18.80;1.00;;;;;;5012446;28;20038;-55
2023/05/31 01:36:41;;;;;;;1.42;0.60;;;18.80;1.00;;;;;;5011693;28;20057;-56
2023/05/31 01:39:10;;;;;;;1.73;0.80;;;18.80;1.00;;;;;;4994286;28;20563;-53
2023/05/31 01:41:40;;;;;;;1.67;0.95;;;18.80;1.00;;;;;;5011777;28;20046;-54
2023/05/31 01:44:09;;;;;;;1.02;0.65;;;18.80;1.00;;;;;;5012263;28;20045;-55
2023/05/31 01:46:36;;;;;;;2.35;0.68;;;18.80;1.00;;;;;;4996373;28;20046;-56
2023/05/31 01:49:03;;;;;;;1.90;0.93;;;18.80;1.00;;;;;;4998222;28;20132;-56
2023/05/31 01:51:32;;;;;;;1.40;0.88;;;18.80;1.00;;;;;;4998573;28;20041;-53
2023/05/31 01:53:59;;;;;;;2.08;0.88;;;18.80;1.00;;;;;;5016407;28;20062;-54
2023/05/31 01:56:28;;;;;;;1.63;0.95;;;18.80;1.00;;;;;;4998179;28;20108;-55
2023/05/31 01:58:57;;;;;;;1.48;0.70;;;18.80;1.00;;;;;;4997431;28;20045;-57
2023/05/31 02:01:24;;;;;;;2.13;1.10;;;18.80;1.00;;;;;;4998039;28;20565;-57
2023/05/31 02:03:51;;;;;;;1.67;0.80;;;18.80;1.00;;;;;;4998330;28;20049;-54
2023/05/31 02:06:18;;;;;;;2.75;0.80;;;18.80;1.00;;;;;;4998052;28;20052;-55
2023/05/31 02:08:45;;;;;;;1.98;0.70;;;18.80;1.00;;;;;;5015772;28;20057;-53
2023/05/31 02:11:12;;;;;;;2.00;1.23;;;18.80;1.00;;;;;;4998594;28;20057;-54
2023/05/31 02:13:39;;;;;;;1.38;0.68;;;18.80;1.00;;;;;;4997632;28;20041;-56
2023/05/31 02:16:07;;;;;;;2.13;0.90;;;18.80;1.00;;;;;;4997711;28;20038;-56
2023/05/31 02:18:35;;;;;;;1.15;0.60;;;18.80;1.00;;;;;;4997585;28;20045;-54
2023/05/31 02:21:02;;;;;;;2.45;0.98;;;18.80;1.00;;;;;;4997724;28;20064;-51
2023/05/31 02:23:29;;;;;;;2.47;0.98;;;18.80;1.00;;;;;;4997798;28;20381;-55
2023/05/31 02:25:56;;;;;;;1.50;0.80;;;18.80;1.00;;;;;;4997306;28;20053;-56
2023/05/31 02:28:24;;;;;;;4.95;1.10;;;18.80;1.00;;;;;;4997242;28;20048;-57
2023/05/31 02:31:00;;;;;;;2.92;1.15;;;18.80;1.00;;;;;;4996336;28;20049;-53
2023/05/31 02:33:30;;;;;;;3.15;0.77;;;18.80;1.00;;;;;;5014835;28;20042;-56
2023/05/31 02:35:59;;;;;;;1.50;0.90;;;18.80;1.00;;;;;;4997294;28;20128;-55
2023/05/31 02:38:26;;;;;;;1.45;0.68;;;18.80;1.00;;;;;;4996837;28;20501;-54
2023/05/31 02:40:53;;;;;;;1.35;0.55;;;18.80;1.00;;;;;;5015091;28;20072;-57
2023/05/31 02:43:20;;;;;;;2.42;0.65;;;18.80;1.00;;;;;;5014783;28;20045;-53
2023/05/31 02:45:47;;;;;;;2.90;0.95;;;18.80;1.00;;;;;;4997006;28;20049;-56
2023/05/31 02:48:14;;;;;;;3.60;1.25;;;18.80;1.00;;;;;;4996763;28;20037;-54
2023/05/31 02:50:41;;;;;;;3.20;1.23;;;18.80;1.00;;;;;;4996958;28;20692;-53
2023/05/31 02:53:21;;;;;;;1.45;1.02;;;18.80;1.00;;;;;;4996977;28;20038;-55
2023/05/31 02:55:55;;;;;;;2.03;0.88;;;18.70;1.00;;;;;;4996560;28;20041;-55
2023/05/31 02:58:22;;;;;;;2.38;0.85;;;18.70;1.00;;;;;;5014237;28;20062;-54
2023/05/31 03:01:11;;;;;;;2.08;0.73;;;18.70;1.00;;;;;;5007924;28;20121;-52
2023/05/31 03:03:47;;;;;;;1.92;0.60;;;18.70;1.00;;;;;;4993451;28;20050;-53
2023/05/31 03:06:23;;;;;;;1.92;1.10;;;18.70;1.00;;;;;;4996578;28;20485;-50
2023/05/31 03:08:50;;;;;;;1.33;0.80;;;18.70;1.00;;;;;;4996606;28;20070;-56
2023/05/31 03:11:18;;;;;;;1.27;0.75;;;18.70;1.00;;;;;;4996981;28;20034;-56
2023/05/31 03:13:45;;;;;;;2.28;0.85;;;18.70;1.00;;;;;;4996568;28;20042;-53
2023/05/31 03:16:12;;;;;;;1.83;0.90;;;18.70;1.00;;;;;;4996695;28;20137;-55
2023/05/31 03:18:39;;;;;;;3.58;1.42;;;18.70;1.00;;;;;;4996188;28;20046;-51
2023/05/31 03:21:06;;;;;;;1.85;1.20;;;18.70;1.00;;;;;;4996496;28;20053;-51
2023/05/31 03:23:34;;;;;;;3.03;0.95;;;18.70;1.00;;;;;;4995961;28;20050;-49
2023/05/31 03:26:02;;;;;;;1.30;0.70;;;18.70;1.00;;;;;;4994752;28;20066;-55
2023/05/31 03:28:28;;;;;;;1.95;1.20;;;18.70;1.00;;;;;;4995760;28;20042;-50
2023/05/31 03:30:55;;;;;;;4.65;1.10;;;18.70;1.00;;;;;;5013953;28;20073;-50
2023/05/31 03:33:22;;;;;;;1.80;1.05;;;18.70;1.00;;;;;;4995934;28;20042;-52
2023/05/31 03:35:51;;;;;;;1.23;0.80;;;18.70;1.00;;;;;;4995892;28;20046;-50
2023/05/31 03:38:18;;;;;;;1.83;0.70;;;18.70;1.00;;;;;;5012984;28;20099;-51
2023/05/31 03:40:45;;;;;;;1.40;1.25;;;18.70;1.00;;;;;;4996102;28;20103;-51
2023/05/31 03:43:13;;;;;;;2.17;1.00;;;18.70;1.00;;;;;;4996012;28;20038;-51
2023/05/31 03:45:43;;;;;;;2.53;1.13;;;18.70;1.00;;;;;;4995848;28;20065;-50
2023/05/31 03:48:10;;;;;;;1.92;1.00;;;18.70;1.00;;;;;;4995906;28;20490;-50
2023/05/31 03:50:39;;;;;;;4.05;1.42;;;18.70;1.00;;;;;;4979799;28;20111;-52
2023/05/31 03:53:06;;;;;;;2.38;1.17;;;18.70;1.00;;;;;;4995739;28;20042;-51
2023/05/31 03:55:33;;;;;;;2.75;0.88;;;18.70;1.00;;;;;;4995798;28;20063;-52
2023/05/31 03:58:01;;;;;;;2.13;0.93;;;18.70;1.00;;;;;;5013300;28;20444;-49
2023/05/31 04:00:34;;;;;;;2.10;1.08;;;18.70;1.00;;;;;;4995444;28;20467;-53
2023/05/31 04:03:02;;;;;;;2.42;1.33;;;18.70;1.00;;;;;;4993734;28;20038;-51
2023/05/31 04:05:33;;;;;;;2.03;1.02;;;18.60;1.00;;;;;;4995539;28;20096;-50
2023/05/31 04:08:01;;;;;;;1.45;1.02;;;18.60;1.00;;;;;;4994947;28;20065;-50
2023/05/31 04:10:31;;;;;;;3.63;1.00;;;18.60;1.00;;;;;;4995108;28;20132;-51
2023/05/31 04:12:58;;;;;;;3.83;1.05;;;18.60;1.00;;;;;;4995407;28;20537;-50
2023/05/31 04:15:25;;;;;;;2.40;1.20;;;18.60;1.00;;;;;;4995472;28;20076;-52
2023/05/31 04:17:56;;;;;;;3.20;1.13;;;18.60;1.00;;;;;;4995277;28;20153;-53
2023/05/31 04:20:24;;;;;;;1.35;0.90;;;18.60;1.00;;;;;;4995145;28;20567;-51
2023/05/31 04:22:53;;;;;;;2.13;1.25;;;18.60;1.00;;;;;;4995378;28;20044;-51
2023/05/31 04:25:20;;;;;;;1.52;0.70;;;18.60;1.00;;;;;;4995317;28;20065;-50
2023/05/31 04:27:47;;;;;;;1.40;0.80;;;18.60;1.00;;;;;;4978844;28;20514;-49
2023/05/31 04:30:14;;;;;;;3.38;0.70;;;18.60;1.00;;;;;;4995657;28;20042;-54
2023/05/31 04:32:41;;;;;;;1.65;0.95;;;18.60;1.00;;;;;;4995681;28;20037;-51
2023/05/31 04:35:08;;;;;;;1.27;0.85;;;18.60;1.00;;;;;;5012772;28;20048;-54
2023/05/31 04:37:39;;;;;;;1.90;1.25;;;18.60;1.00;;;;;;4994996;28;20669;-50
2023/05/31 04:40:09;;;;;;;4.57;1.17;;;18.60;1.00;;;;;;4994991;28;20042;-50
2023/05/31 04:42:36;;;;;;;2.25;0.85;;;18.60;1.00;;;;;;5012467;28;20520;-51
2023/05/31 04:45:05;;;;;;;3.72;1.05;;;18.60;1.00;;;;;;4995018;28;20065;-50
2023/05/31 04:47:37;;;;;;;;;;;18.60;1.00;;;;;;4995051;28;20413;-51
2023/05/31 04:50:05;;;;;;;1.83;1.02;;;18.60;1.00;;;;;;4996839;28;19921;-50
2023/05/31 04:52:33;;;;;;;1.73;0.80;;;18.60;1.00;;;;;;4997166;28;20382;-52
2023/05/31 04:55:00;;;;;;;2.10;0.85;;;18.60;1.00;;;;;;4994769;28;20041;-52
2023/05/31 04:57:28;;;;;;;3.08;0.63;;;18.60;1.00;;;;;;4994345;28;20572;-52
2023/05/31 04:59:59;;;;;;;3.33;1.15;;;18.60;1.00;;;;;;4994844;28;20187;-53
2023/05/31 05:02:26;;;;;;;2.10;0.80;;;18.60;1.00;;;;;;5009526;22;20068;-52
2023/05/31 05:04:54;;;;;;;3.10;1.38;;;18.50;1.00;;;;;;5014208;28;20100;-52
2023/05/31 05:07:21;;;;;;;1.65;1.00;;;18.60;1.00;;;;;;5014163;28;20164;-53
2023/05/31 05:09:48;;;;;;;3.53;0.88;;;18.60;1.00;;;;;;5013903;28;20075;-53
2023/05/31 05:12:15;;;;;;;1.88;1.05;;;18.60;1.00;;;;;;5013892;28;20038;-53
2023/05/31 05:14:45;;;;;;;2.47;1.33;;;18.60;1.00;;;;;;5014068;28;20045;-53
2023/05/31 05:17:13;;;;;;;1.48;0.68;;;18.60;1.00;;;;;;5014026;28;20053;-51
2023/05/31 05:19:40;;;;;;;2.60;1.02;;;18.50;1.00;;;;;;5013631;28;20417;-53
2023/05/31 05:22:10;;;;;;;2.20;1.10;;;18.60;1.00;;;;;;5014182;28;20052;-50
2023/05/31 05:24:38;;;;;;;1.95;1.30;;;18.50;1.00;;;;;;5013653;28;20509;-50
2023/05/31 05:27:06;;;;;;;3.50;0.77;;;18.60;1.00;;;;;;5013877;28;20091;-50
2023/05/31 05:29:33;;;;;;;2.35;1.10;;;18.50;1.00;;;;;;5013726;28;20053;-51
2023/05/31 05:31:59;;;;;;;3.33;1.30;;;18.50;1.00;;;;;;5013958;28;20041;-52
2023/05/31 05:34:26;;;;;;;4.00;1.02;;;18.60;1.00;;;;;;5215016;22;20107;-53
2023/05/31 05:36:53;;;;;;;2.55;0.98;;;18.50;1.00;;;;;;5042909;28;20060;-54
2023/05/31 05:39:21;;;;;;;4.13;0.90;;;18.60;1.00;;;;;;5030280;28;20088;-52
2023/05/31 05:41:48;;;;;;;3.97;1.20;;;18.50;1.00;;;;;;5031564;28;20107;-52
2023/05/31 05:44:15;;;;;;;2.33;0.90;;;18.60;1.00;;;;;;5030136;28;20496;-50
2023/05/31 05:46:42;;;;;;;3.42;1.17;;;18.50;1.00;;;;;;5030283;28;20148;-52
2023/05/31 05:49:11;;;;;;;2.40;0.93;;;18.50;1.00;;;;;;5030045;28;20061;-54
2023/05/31 05:51:38;;;;;;;2.50;0.95;;;18.50;1.00;;;;;;5031376;28;20107;-55
2023/05/31 05:54:07;;;;;;;3.97;1.05;;;18.50;1.00;;;;;;5030433;28;20091;-55
2023/05/31 05:56:35;;;;;;;1.45;1.08;;;18.50;1.00;;;;;;5031341;28;20037;-56
2023/05/31 05:59:04;;;;;;;1.85;1.17;;;18.50;1.00;;;;;;5029963;28;20080;-55
2023/05/31 06:01:57;;;;;;;2.00;1.08;;;18.50;1.00;;;;;;5008065;28;20408;-50
2023/05/31 06:04:25;;;;;;;4.45;1.30;;;18.50;1.00;;;;;;5028670;28;20053;-54
2023/05/31 06:06:52;;;;;;;1.23;0.68;;;18.50;1.00;;;;;;5035316;28;20037;-51
2023/05/31 06:09:18;;;;;;;2.35;1.35;;;18.50;1.00;;;;;;5044765;28;20037;-56
2023/05/31 06:11:45;;;;;;;2.15;1.10;;;18.50;1.00;;;;;;5035850;28;20041;-53
2023/05/31 06:14:13;;;;;;;2.95;0.90;;;18.50;1.00;;;;;;5029944;28;20131;-55
2023/05/31 06:16:44;;;;;;;4.03;1.05;;;18.50;1.00;;;;;;5029716;28;20084;-54
2023/05/31 06:19:12;;;;;;;3.15;1.00;;;18.50;1.00;;;;;;5029821;28;20095;-56
2023/05/31 06:21:40;;;;;;;2.13;1.17;;;18.50;1.00;;;;;;5029674;28;20046;-55
2023/05/31 06:24:07;;;;;;;2.00;0.90;;;18.50;1.00;;;;;;5029897;28;20046;-56
2023/05/31 06:26:35;;;;;;;5.07;1.10;;;18.50;1.00;;;;;;5030898;28;20046;-56
2023/05/31 06:29:03;;;;;;;2.35;1.40;;;18.50;1.00;;;;;;5029648;28;20128;-56
2023/05/31 06:31:48;;;;;;;1.65;0.90;;;18.50;1.00;;;;;;5032568;28;20168;-53
2023/05/31 06:34:15;;;;;;;2.05;1.10;;;18.50;1.00;;;;;;5085110;22;20053;-51
2023/05/31 06:36:42;;;;;;;3.67;1.00;;;18.50;1.00;;;;;;5034477;28;20120;-52
2023/05/31 06:39:09;;;;;;;2.42;0.93;;;18.50;1.00;;;;;;5034524;28;20037;-51
2023/05/31 06:41:37;;;;;;;2.25;0.93;;;18.50;1.00;;;;;;5034540;28;20076;-54
2023/05/31 06:44:24;;;;;;;2.53;1.20;;;18.50;1.00;;;;;;5034235;28;20393;-54
2023/05/31 06:46:58;;;;;;;2.80;1.25;;;18.50;1.00;;;;;;4997038;28;20512;-56
2023/05/31 06:49:27;;;;;;;1.17;0.60;;;18.50;1.00;;;;;;5014662;28;20125;-53
2023/05/31 06:52:14;;;;;;;2.10;0.93;;;18.50;1.00;;;;;;4996818;28;20045;-52
2023/05/31 06:54:59;;;;;;;2.53;1.15;;;18.50;1.00;;;;;;5014874;28;20128;-57
2023/05/31 06:57:26;;;;;;;2.80;1.02;;;18.50;1.00;;;;;;5013093;28;20054;-56
2023/05/31 06:59:54;;;;;;;3.47;1.20;;;18.50;1.00;;;;;;5017233;28;20030;-53
2023/05/31 07:02:21;;;;;;;1.83;1.35;;;18.60;1.00;;;;;;5001326;28;20498;-54
2023/05/31 07:04:48;;;;;;;3.50;1.27;;;18.60;1.00;;;;;;5177150;22;20068;-54
2023/05/31 07:07:15;;;;;;;1.90;1.10;;;18.60;1.00;;;;;;5010760;28;20101;-54
2023/05/31 07:09:42;;;;;;;1.48;0.95;;;18.60;1.00;;;;;;4994272;28;20045;-55
2023/05/31 07:12:10;;;;;;;1.75;0.80;;;18.60;1.00;;;;;;5014288;28;20406;-55
2023/05/31 07:14:36;;;;;;;1.38;0.90;;;18.60;1.00;;;;;;4987463;28;20096;-51
2023/05/31 07:17:04;;;;;;;2.13;1.02;;;18.60;1.00;;;;;;4977074;28;20046;-50
2023/05/31 07:19:31;;;;;;;2.20;1.25;;;18.60;1.00;;;;;;4976836;28;20174;-53
2023/05/31 07:21:57;;;;;;;1.63;1.08;;;18.60;1.00;;;;;;4994508;28;20541;-51
2023/05/31 07:24:24;;;;;;;6.70;1.65;;;18.60;1.00;;;;;;4994201;28;20061;-57
2023/05/31 07:26:51;;;;;;;2.30;1.00;;;18.60;1.00;;;;;;4994164;28;20555;-56
2023/05/31 07:29:18;;;;;;;3.13;0.75;;;18.60;1.00;;;;;;4994112;28;20402;-57
2023/05/31 07:31:45;;;;;;;2.03;1.08;;;18.60;1.00;;;;;;4994401;28;20118;-51
2023/05/31 07:34:11;;;;;;;3.05;1.60;;;18.60;1.00;;;;;;4994273;28;20041;-58
2023/05/31 07:36:40;;;;;;;2.40;1.05;;;18.60;1.00;;;;;;5078115;22;20128;-57
2023/05/31 07:39:08;;;;;;;1.73;1.40;;;18.60;1.00;;;;;;5033305;28;20096;-53
2023/05/31 07:41:35;;;;;;;2.15;1.33;;;18.60;1.00;;;;;;5033537;28;20042;-56
2023/05/31 07:44:02;;;;;;;3.42;1.63;;;18.60;1.00;;;;;;5027955;28;20117;-55
2023/05/31 07:46:29;;;;;;;2.38;1.13;;;18.60;1.00;;;;;;5013606;28;20046;-54
2023/05/31 07:48:56;;;;;;;1.63;1.05;;;18.60;1.00;;;;;;5013311;28;20462;-55
2023/05/31 07:51:23;;;;;;;3.17;1.10;;;18.70;1.00;;;;;;5013532;28;20113;-51
2023/05/31 07:53:50;;;;;;;2.55;1.27;;;18.70;1.00;;;;;;5013038;28;20180;-55
2023/05/31 07:56:16;;;;;;;2.08;1.02;;;18.70;1.00;;;;;;5013457;28;20503;-55
2023/05/31 07:58:43;;;;;;;3.97;1.48;;;18.70;1.00;;;;;;5012995;28;20403;-50
2023/05/31 08:01:10;;;;;;;1.83;0.95;;;18.70;1.00;;;;;;5013482;28;20434;-50
2023/05/31 08:03:37;;;;;;;3.38;1.33;;;18.70;1.00;;;;;;5013018;28;20077;-55
2023/05/31 08:06:04;;;;;;;3.33;1.27;;;18.70;1.00;;;;;;5240876;22;20112;-53
2023/05/31 08:08:34;;;;;;;1.75;1.08;;;18.70;1.00;;;;;;5032236;28;20129;-56
2023/05/31 08:11:01;;;;;;;2.15;1.83;;;18.70;1.00;;;;;;5032830;28;20037;-55
2023/05/31 08:13:29;;;;;;;6.45;1.85;;;18.70;1.00;;;;;;5032773;28;20552;-54
2023/05/31 08:15:56;;;;;;;3.08;1.20;;;18.70;1.00;;;;;;5012785;28;20509;-55
2023/05/31 08:18:22;;;;;;;2.17;1.33;;;18.70;1.00;;;;;;5013048;28;20049;-56
2023/05/31 08:20:49;;;;;;;3.15;1.30;;;18.70;1.00;;;;;;5012914;28;20069;-56
2023/05/31 08:23:18;;;;;;;1.92;1.30;;;18.70;1.00;;;;;;5013155;28;20054;-53
2023/05/31 08:25:45;;;;;;;3.03;1.40;;;18.70;1.00;;;;;;5012689;28;20049;-56
2023/05/31 08:28:12;;;;;;;2.80;1.40;;;18.70;1.00;;;;;;5012494;28;20121;-54
2023/05/31 08:30:39;;;;;;;1.92;1.45;;;18.70;1.00;;;;;;5012541;28;20066;-53
2023/05/31 08:33:07;;;;;;;2.40;1.45;;;18.80;1.00;;;;;;5012427;28;20031;-52
2023/05/31 08:35:34;;;;;;;1.70;1.10;;;18.80;1.00;;;;;;5012479;28;20050;-53
2023/05/31 08:38:02;;;;;;;2.63;1.40;;;18.80;1.00;;;;;;5076254;22;20056;-55
2023/05/31 08:40:29;;;;;;;5.03;1.33;;;18.80;1.00;;;;;;5031970;28;20124;-52
2023/05/31 08:43:01;;;;;;;2.70;1.25;;;18.80;1.00;;;;;;5031874;28;20079;-53
2023/05/31 08:45:29;;;;;;;2.95;1.35;;;18.80;1.00;;;;;;5016166;28;20497;-54
2023/05/31 08:48:05;;;;;;;4.20;1.35;;;18.80;1.00;;;;;;5011870;28;20056;-51
2023/05/31 08:50:32;;;;;;;1.98;1.35;;;18.80;1.00;;;;;;5012148;28;20066;-49
2023/05/31 08:52:59;;;;;;;2.55;1.52;;;18.80;1.00;;;;;;5012118;28;20645;-56
2023/05/31 08:55:27;;;;;;;3.35;1.10;;;18.80;1.00;;;;;;5011706;28;20125;-53
2023/05/31 08:57:56;;;;;;;2.00;1.30;;;18.90;1.00;;;;;;5010905;28;20056;-56
2023/05/31 09:00:23;;;;;;;4.00;1.20;;;18.90;1.00;;;;;;5012049;28;20527;-54
2023/05/31 09:02:51;;;;;;;2.63;1.23;;;18.90;1.00;;;;;;5011967;28;20077;-52
2023/05/31 09:05:18;;;;;;;1.30;1.17;;;18.90;1.00;;;;;;5012010;28;20092;-54
2023/05/31 09:07:47;;;;;;;2.58;1.58;;;18.90;1.00;;;;;;5012392;28;20068;-55
2023/05/31 09:10:15;;;;;;;2.58;1.58;;;18.90;1.00;;;;;;5012183;28;20394;-53
2023/05/31 09:12:43;;;;;;;2.85;1.38;;;19.00;1.00;;;;;;5009189;28;20037;-53
2023/05/31 09:15:15;;;;;;;2.50;1.38;;;18.90;1.00;;;;;;5012029;28;20112;-53
2023/05/31 09:17:44;;;;;;;3.35;1.58;;;19.00;1.00;;;;;;5011986;28;20076;-54
2023/05/31 09:20:11;;;;;;;3.25;1.88;;;19.00;1.00;;;;;;5011872;28;20490;-52
2023/05/31 09:22:38;;;;;;;3.97;1.50;;;19.00;1.00;;;;;;5012154;28;20057;-56
2023/05/31 09:25:06;;;;;;;1.85;1.30;;;19.00;1.00;;;;;;5011714;28;20073;-56
2023/05/31 09:27:38;;;;;;;3.90;1.42;;;19.10;1.00;;;;;;5011636;28;20555;-54
2023/05/31 09:30:09;;;;;;;3.70;1.40;;;19.10;1.00;;;;;;5011800;28;20044;-54
2023/05/31 09:32:36;;;;;;;1.92;1.38;;;19.10;1.00;;;;;;5011895;28;20494;-52
2023/05/31 09:35:14;;;;;;;3.95;1.63;;;19.10;1.00;;;;;;5011575;28;20497;-51
2023/05/31 09:37:44;;;;;;;2.47;1.50;;;19.10;1.00;;;;;;5181937;22;21010;-53
2023/05/31 09:40:21;;;;;;;2.38;1.10;;;19.20;1.00;;;;;;5010409;28;20096;-52
2023/05/31 09:42:49;;;;;;;3.50;1.38;;;19.20;1.00;;;;;;5011331;28;20069;-53
2023/05/31 09:45:16;;;;;;;5.22;1.67;;;19.20;1.00;;;;;;4997497;28;20433;-52
2023/05/31 09:47:44;;;;;;;2.30;1.40;;;19.20;1.00;;;;;;4991298;28;20038;-54
2023/05/31 09:50:15;;;;;;;3.38;1.95;;;19.20;1.00;;;;;;4991962;28;20137;-56
2023/05/31 09:52:54;;;;;;;1.88;1.48;;;19.20;1.00;;;;;;4991781;28;20125;-51
2023/05/31 09:55:21;;;;;;;2.50;1.50;;;19.20;1.00;;;;;;4991790;28;20043;-52
2023/05/31 09:57:52;;;;;;;2.22;1.63;;;19.20;1.00;;;;;;4966070;28;20461;-52
2023/05/31 10:00:19;;;;;;;3.95;1.52;;;19.30;1.00;;;;;;4992133;28;20047;-52
2023/05/31 10:02:47;;;;;;;4.68;1.83;;;19.30;1.00;;;;;;4992185;28;20230;-52
2023/05/31 10:05:16;;;;;;;5.57;1.98;;;19.30;1.00;;;;;;4991822;28;20046;-53
2023/05/31 10:07:43;;;;;;;2.55;1.20;;;19.30;1.00;;;;;;5045172;22;20047;31
2023/05/31 10:10:10;;;;;;;2.65;1.60;;;19.30;1.00;;;;;;5017914;28;20054;-55
2023/05/31 10:12:42;;;;;;;3.78;1.95;;;19.40;1.00;;;;;;5011622;28;20065;-52
2023/05/31 10:15:12;;;;;;;6.13;1.70;;;19.40;1.00;;;;;;4983245;28;20045;-54
2023/05/31 10:17:45;;;;;;;2.13;1.33;;;19.40;1.00;;;;;;4980875;28;20557;-52
2023/05/31 10:20:16;;;;;;;5.07;1.73;;;19.40;1.00;;;;;;4975899;28;20122;-54
2023/05/31 10:22:48;;;;;;;4.22;1.65;;;19.40;1.00;;;;;;4984223;28;20062;-51
2023/05/31 10:25:40;;;;;;;4.20;1.63;;;19.40;1.00;;;;;;4989945;28;20056;-51
2023/05/31 10:28:13;;;;;;;2.58;1.70;;;19.40;1.00;;;;;;4983838;28;20121;-57
2023/05/31 10:30:43;;;;;;;3.22;1.60;;;19.40;1.00;;;;;;4958547;28;20391;-54
2023/05/31 10:33:14;;;;;;;3.00;1.58;;;19.40;1.00;;;;;;4983809;28;20143;-54
2023/05/31 10:35:41;;;;;;;3.97;1.52;;;19.40;1.00;;;;;;4976134;28;20558;-55
2023/05/31 10:38:09;;;;;;;2.28;1.83;;;19.50;1.00;;;;;;4975668;28;20118;-53
2023/05/31 10:40:42;;;;;;;3.10;1.58;;;19.40;1.00;;;;;;4975898;28;20066;-52
2023/05/31 10:43:20;;;;;;;4.25;1.38;;;19.50;1.00;;;;;;4990784;28;20487;-55
2023/05/31 10:46:18;;;;;;;3.38;1.90;;;19.50;1.00;;;;;;4978303;28;20049;-54
2023/05/31 10:48:55;;;;;;;2.53;1.95;;;19.50;1.00;;;;;;4974721;28;20467;-54
2023/05/31 10:51:39;;;;;;;2.25;1.30;;;19.50;1.00;;;;;;4975754;28;20039;-56
2023/05/31 10:54:06;;;;;;;2.53;1.90;;;19.50;1.00;;;;;;4975272;28;20379;-54
2023/05/31 10:56:37;;;;;;;2.15;1.45;;;19.50;1.00;;;;;;4975621;28;20042;-50
2023/05/31 10:59:08;;;;;;;2.25;1.20;;;19.50;1.00;;;;;;4975153;28;20070;-52
2023/05/31 11:01:35;;;;;;;2.83;1.70;;;19.50;1.00;;;;;;4975558;28;20102;-56
2023/05/31 11:04:22;;;;;;;2.45;1.50;;;19.50;1.00;;;;;;4975024;28;20046;-56
2023/05/31 11:06:53;;;;;;;2.83;1.45;;;19.50;1.00;;;;;;4975266;28;20098;-52
2023/05/31 11:09:20;;;;;;;5.38;2.00;;;19.50;1.00;;;;;;5023419;22;20053;-53
2023/05/31 11:11:48;;;;;;;4.78;1.65;;;19.60;1.00;;;;;;5028151;28;20052;-54
2023/05/31 11:14:15;;;;;;;2.80;1.85;;;19.50;1.00;;;;;;5026442;28;20095;-51
2023/05/31 11:16:46;;;;;;;3.83;1.65;;;19.50;1.00;;;;;;5034092;28;20492;-55
2023/05/31 11:19:17;;;;;;;4.80;1.50;;;19.50;1.00;;;;;;5027489;28;20033;-53
2023/05/31 11:21:49;;;;;;;2.35;1.38;;;19.50;1.00;;;;;;5033998;28;20033;-52
2023/05/31 11:24:33;;;;;;;5.10;1.92;;;19.50;1.00;;;;;;5033823;28;20041;-51
2023/05/31 11:27:01;;;;;;;2.90;1.63;;;19.50;1.00;;;;;;5033459;28;20112;-54
2023/05/31 11:29:47;;;;;;;5.30;1.83;;;19.60;1.00;;;;;;5033574;28;20640;-49
2023/05/31 11:32:38;;;;;;;4.78;2.40;;;19.60;1.00;;;;;;5033740;28;20076;-54
2023/05/31 11:35:10;;;;;;;3.35;1.77;;;19.60;1.00;;;;;;5033444;28;20042;-53
2023/05/31 11:37:38;;;;;;;4.97;1.45;;;19.60;1.00;;;;;;5033359;28;20080;-53
2023/05/31 11:40:11;;;;;;;4.10;1.60;;;19.60;1.00;;;;;;5188137;22;20049;-52
2023/05/31 11:42:39;;;;;;;;;;;19.50;1.00;;;;;;5007294;28;20046;-55
2023/05/31 11:45:08;;;;;;;4.03;2.10;;;19.50;1.00;;;;;;5001803;28;19968;-51
2023/05/31 11:47:56;;;;;;;3.53;1.88;;;19.50;1.00;;;;;;5002259;28;20108;-51
2023/05/31 11:50:24;;;;;;;2.30;1.48;;;19.50;1.00;;;;;;4993769;28;20053;-53
2023/05/31 11:52:54;;;;;;;3.00;1.60;;;19.50;1.00;;;;;;4993852;28;20117;-50
2023/05/31 11:55:21;;;;;;;3.03;1.58;;;19.60;1.00;;;;;;4993949;28;20069;-53
2023/05/31 11:57:51;;;;;;;3.63;1.67;;;19.50;1.00;;;;;;5002841;28;20042;-53
2023/05/31 12:00:21;;;;;;;9.55;1.98;;;19.50;1.00;;;;;;5005966;28;20108;-53
2023/05/31 12:02:53;;;;;;;2.75;1.42;;;19.50;1.00;;;;;;4997056;28;20047;-55
2023/05/31 12:05:22;;;;;;;2.53;1.67;;;19.50;1.00;;;;;;4998089;28;20066;-51
2023/05/31 12:07:53;;;;;;;7.40;1.80;;;19.60;1.00;;;;;;5004962;28;20050;-52
2023/05/31 12:13:17;;;;;;;3.40;1.92;;;19.50;1.00;;;;;;4981745;28;20043;-52
2023/05/31 12:15:53;;;;;;;3.75;2.50;;;19.50;1.00;;;;;;4983261;28;20038;-51
2023/05/31 12:18:22;;;;;;;2.33;1.63;;;19.50;1.00;;;;;;4966875;28;20039;-54
2023/05/31 12:20:49;;;;;;;4.10;1.95;;;19.50;1.00;;;;;;4977875;28;20113;-51
2023/05/31 12:23:18;;;;;;;2.33;1.85;;;19.50;1.00;;;;;;4966432;28;20122;-53
2023/05/31 12:25:49;;;;;;;6.93;2.30;;;19.50;1.00;;;;;;4974225;28;20049;-52
2023/05/31 12:28:18;;;;;;;4.07;1.80;;;19.50;1.00;;;;;;4976524;28;20133;-51
2023/05/31 12:30:46;;;;;;;2.72;1.50;;;19.50;1.00;;;;;;4977359;28;20038;-53
2023/05/31 12:33:15;;;;;;;10.05;1.80;;;19.50;1.00;;;;;;4973721;28;20045;-52
2023/05/31 12:35:46;;;;;;;2.22;1.48;;;19.60;1.00;;;;;;4973872;28;20042;-51
2023/05/31 12:38:13;;;;;;;3.45;1.80;;;19.60;1.00;;;;;;4973576;28;20216;-51
2023/05/31 12:40:42;;;;;;;3.95;2.13;;;19.60;1.00;;;;;;4973764;28;20487;-53
2023/05/31 12:43:12;;;;;;;9.13;2.20;;;19.60;1.00;;;;;;5098756;22;20303;-51
2023/05/31 12:45:41;;;;;;;3.92;2.38;;;19.50;1.00;;;;;;4985229;28;20550;-51
2023/05/31 12:48:10;;;;;;;3.55;1.92;;;19.50;1.00;;;;;;4991753;28;20540;-53
2023/05/31 12:50:44;;;;;;;2.85;1.85;;;19.50;1.00;;;;;;4992926;28;20096;-49
2023/05/31 12:53:12;;;;;;;3.20;1.75;;;19.60;1.00;;;;;;4990452;28;20228;-51
2023/05/31 12:55:39;;;;;;;6.43;1.75;;;19.60;1.00;;;;;;4993225;28;20042;-51
2023/05/31 12:58:06;;;;;;;3.90;1.55;;;19.60;1.00;;;;;;4992880;28;20129;-53
2023/05/31 13:00:33;;;;;;;2.40;1.73;;;19.60;1.00;;;;;;4989428;28;20105;-50
2023/05/31 13:03:00;;;;;;;2.53;1.65;;;19.50;1.00;;;;;;4990699;28;20422;-52
2023/05/31 13:05:27;;;;;;;4.15;2.05;;;19.60;1.00;;;;;;4992903;28;20142;-52
2023/05/31 13:07:53;;;;;;;2.85;1.73;;;19.60;1.00;;;;;;4992038;28;20461;-55
2023/05/31 13:10:21;;;;;;;3.58;1.65;;;19.60;1.00;;;;;;4992706;28;20117;-56
2023/05/31 13:12:47;;;;;;;3.15;1.80;;;19.60;1.00;;;;;;4992627;28;20050;-51